CPX337 Details

Departure: Fort Worth Alliance Airport (KAFW)
Arrival: Miami International Airport (KMIA)
Route: KUSSO5 ZALEA SWB HRV Q105 BLVNS Y290 BAGGS SSCOT5


Current Weather Information
KAFW 251153Z 16011KT 10SM FEW030 SCT300 22/19 A3001 RMK AO2 SLP147 T02220194 10256 20222 53003
KMIA 251153Z 10010G17KT 10SM BKN030 27/18 A3006 RMK AO2 SLP178 T02670183 10267 20250 53010 $